sensor_id;sensor_type;location;lat;lon;timestamp;P1;durP1;ratioP1;P2;durP2;ratioP2
44462;SDS011;30170;52.190;8.702;2023-03-01T00:00:06;26.85;;;17.33;;
44462;SDS011;30170;52.190;8.702;2023-03-01T00:02:34;28.83;;;15.73;;
44462;SDS011;30170;52.190;8.702;2023-03-01T00:05:01;28.48;;;17.00;;
44462;SDS011;30170;52.190;8.702;2023-03-01T00:07:29;24.42;;;14.93;;
44462;SDS011;30170;52.190;8.702;2023-03-01T00:09:56;25.50;;;15.95;;
44462;SDS011;30170;52.190;8.702;2023-03-01T00:12:23;27.02;;;14.13;;
44462;SDS011;30170;52.190;8.702;2023-03-01T00:14:51;27.13;;;16.00;;
44462;SDS011;30170;52.190;8.702;2023-03-01T00:17:18;24.30;;;14.05;;
44462;SDS011;30170;52.190;8.702;2023-03-01T00:19:45;29.08;;;14.75;;
44462;SDS011;30170;52.190;8.702;2023-03-01T00:22:12;31.10;;;14.75;;
44462;SDS011;30170;52.190;8.702;2023-03-01T00:24:39;22.45;;;14.23;;
44462;SDS011;30170;52.190;8.702;2023-03-01T00:27:07;26.73;;;14.23;;
44462;SDS011;30170;52.190;8.702;2023-03-01T00:29:34;21.65;;;14.00;;
44462;SDS011;30170;52.190;8.702;2023-03-01T00:32:01;32.13;;;17.27;;
44462;SDS011;30170;52.190;8.702;2023-03-01T00:34:28;25.25;;;14.73;;
44462;SDS011;30170;52.190;8.702;2023-03-01T00:36:56;25.05;;;13.98;;
44462;SDS011;30170;52.190;8.702;2023-03-01T00:39:31;23.25;;;13.63;;
44462;SDS011;30170;52.190;8.702;2023-03-01T00:41:59;24.02;;;13.80;;
44462;SDS011;30170;52.190;8.702;2023-03-01T00:44:26;27.25;;;13.93;;
44462;SDS011;30170;52.190;8.702;2023-03-01T00:46:54;26.50;;;14.10;;
44462;SDS011;30170;52.190;8.702;2023-03-01T00:49:21;25.70;;;14.30;;
44462;SDS011;30170;52.190;8.702;2023-03-01T00:51:50;28.40;;;14.57;;
44462;SDS011;30170;52.190;8.702;2023-03-01T00:54:17;23.02;;;14.35;;
44462;SDS011;30170;52.190;8.702;2023-03-01T00:56:44;27.98;;;14.25;;
44462;SDS011;30170;52.190;8.702;2023-03-01T00:59:13;26.73;;;13.65;;
44462;SDS011;30170;52.190;8.702;2023-03-01T01:01:40;24.55;;;13.15;;
44462;SDS011;30170;52.190;8.702;2023-03-01T01:04:09;27.33;;;14.65;;
44462;SDS011;30170;52.190;8.702;2023-03-01T01:06:41;24.83;;;13.63;;
44462;SDS011;30170;52.190;8.702;2023-03-01T01:09:09;22.10;;;14.20;;
44462;SDS011;30170;52.190;8.702;2023-03-01T01:11:43;24.42;;;14.32;;
44462;SDS011;30170;52.190;8.702;2023-03-01T01:14:11;26.73;;;15.52;;
44462;SDS011;30170;52.190;8.702;2023-03-01T01:16:38;23.08;;;13.25;;
44462;SDS011;30170;52.190;8.702;2023-03-01T01:19:06;28.20;;;14.98;;
44462;SDS011;30170;52.190;8.702;2023-03-01T01:21:33;23.90;;;13.93;;
44462;SDS011;30170;52.190;8.702;2023-03-01T01:24:02;25.42;;;13.10;;
44462;SDS011;30170;52.190;8.702;2023-03-01T01:26:30;23.45;;;13.73;;
44462;SDS011;30170;52.190;8.702;2023-03-01T01:28:58;27.20;;;14.68;;
44462;SDS011;30170;52.190;8.702;2023-03-01T01:31:26;22.98;;;13.02;;
44462;SDS011;30170;52.190;8.702;2023-03-01T01:33:55;22.13;;;13.10;;
44462;SDS011;30170;52.190;8.702;2023-03-01T01:36:22;20.15;;;11.30;;
44462;SDS011;30170;52.190;8.702;2023-03-01T01:38:50;19.90;;;12.15;;
44462;SDS011;30170;52.190;8.702;2023-03-01T01:41:17;23.70;;;14.23;;
44462;SDS011;30170;52.190;8.702;2023-03-01T01:46:31;23.60;;;12.57;;
44462;SDS011;30170;52.190;8.702;2023-03-01T01:51:31;22.73;;;13.98;;
44462;SDS011;30170;52.190;8.702;2023-03-01T01:54:14;20.63;;;11.73;;
44462;SDS011;30170;52.190;8.702;2023-03-01T01:56:44;25.60;;;13.80;;
44462;SDS011;30170;52.190;8.702;2023-03-01T01:59:14;22.55;;;13.85;;
44462;SDS011;30170;52.190;8.702;2023-03-01T02:01:41;26.67;;;13.77;;
44462;SDS011;30170;52.190;8.702;2023-03-01T02:04:09;19.65;;;12.82;;
44462;SDS011;30170;52.190;8.702;2023-03-01T02:06:38;21.95;;;10.77;;
44462;SDS011;30170;52.190;8.702;2023-03-01T02:09:07;18.45;;;11.50;;
44462;SDS011;30170;52.190;8.702;2023-03-01T02:11:34;20.48;;;12.13;;
44462;SDS011;30170;52.190;8.702;2023-03-01T02:14:03;23.38;;;12.63;;
44462;SDS011;30170;52.190;8.702;2023-03-01T02:16:31;27.65;;;12.57;;
44462;SDS011;30170;52.190;8.702;2023-03-01T02:18:59;23.52;;;14.07;;
44462;SDS011;30170;52.190;8.702;2023-03-01T02:23:58;21.92;;;12.25;;
44462;SDS011;30170;52.190;8.702;2023-03-01T02:26:42;22.77;;;11.88;;
44462;SDS011;30170;52.190;8.702;2023-03-01T02:29:12;20.75;;;11.20;;
44462;SDS011;30170;52.190;8.702;2023-03-01T02:31:39;24.75;;;13.13;;
44462;SDS011;30170;52.190;8.702;2023-03-01T02:34:14;21.58;;;12.68;;
44462;SDS011;30170;52.190;8.702;2023-03-01T02:39:13;22.02;;;11.90;;
44462;SDS011;30170;52.190;8.702;2023-03-01T02:41:44;20.98;;;12.30;;
44462;SDS011;30170;52.190;8.702;2023-03-01T02:44:12;22.45;;;11.43;;
44462;SDS011;30170;52.190;8.702;2023-03-01T02:46:44;22.50;;;10.85;;
44462;SDS011;30170;52.190;8.702;2023-03-01T02:49:15;21.13;;;11.88;;
44462;SDS011;30170;52.190;8.702;2023-03-01T02:51:52;23.35;;;12.43;;
44462;SDS011;30170;52.190;8.702;2023-03-01T02:59:23;23.55;;;12.45;;
44462;SDS011;30170;52.190;8.702;2023-03-01T03:01:51;18.50;;;11.18;;
44462;SDS011;30170;52.190;8.702;2023-03-01T03:04:18;19.30;;;11.15;;
44462;SDS011;30170;52.190;8.702;2023-03-01T03:06:48;19.92;;;11.35;;
44462;SDS011;30170;52.190;8.702;2023-03-01T03:09:15;21.52;;;11.80;;
44462;SDS011;30170;52.190;8.702;2023-03-01T03:11:43;19.77;;;11.00;;
44462;SDS011;30170;52.190;8.702;2023-03-01T03:14:11;19.17;;;11.27;;
44462;SDS011;30170;52.190;8.702;2023-03-01T03:16:41;17.80;;;10.98;;
44462;SDS011;30170;52.190;8.702;2023-03-01T03:19:09;21.80;;;10.95;;
44462;SDS011;30170;52.190;8.702;2023-03-01T03:21:36;25.23;;;12.57;;
44462;SDS011;30170;52.190;8.702;2023-03-01T03:24:04;17.70;;;10.65;;
44462;SDS011;30170;52.190;8.702;2023-03-01T03:26:31;26.13;;;11.25;;
44462;SDS011;30170;52.190;8.702;2023-03-01T03:28:59;22.75;;;11.35;;
44462;SDS011;30170;52.190;8.702;2023-03-01T03:31:26;20.73;;;11.13;;
44462;SDS011;30170;52.190;8.702;2023-03-01T03:33:53;24.25;;;10.25;;
44462;SDS011;30170;52.190;8.702;2023-03-01T03:36:23;20.65;;;11.35;;
44462;SDS011;30170;52.190;8.702;2023-03-01T03:38:50;21.73;;;10.90;;
44462;SDS011;30170;52.190;8.702;2023-03-01T03:41:17;19.90;;;12.15;;
44462;SDS011;30170;52.190;8.702;2023-03-01T03:43:45;21.08;;;11.45;;
44462;SDS011;30170;52.190;8.702;2023-03-01T03:46:12;23.13;;;11.75;;
44462;SDS011;30170;52.190;8.702;2023-03-01T03:48:41;18.08;;;11.07;;
44462;SDS011;30170;52.190;8.702;2023-03-01T03:51:10;18.55;;;10.20;;
44462;SDS011;30170;52.190;8.702;2023-03-01T03:53:38;21.25;;;11.18;;
44462;SDS011;30170;52.190;8.702;2023-03-01T03:56:05;20.27;;;11.32;;
44462;SDS011;30170;52.190;8.702;2023-03-01T03:58:33;20.55;;;11.52;;
44462;SDS011;30170;52.190;8.702;2023-03-01T04:01:00;20.55;;;11.82;;
44462;SDS011;30170;52.190;8.702;2023-03-01T04:03:28;16.83;;;10.55;;
44462;SDS011;30170;52.190;8.702;2023-03-01T04:05:57;23.20;;;11.98;;
44462;SDS011;30170;52.190;8.702;2023-03-01T04:08:24;19.52;;;11.48;;
44462;SDS011;30170;52.190;8.702;2023-03-01T04:10:52;16.98;;;10.57;;
44462;SDS011;30170;52.190;8.702;2023-03-01T04:13:23;21.52;;;11.88;;
44462;SDS011;30170;52.190;8.702;2023-03-01T04:15:52;20.02;;;10.10;;
44462;SDS011;30170;52.190;8.702;2023-03-01T04:18:21;19.88;;;12.57;;
44462;SDS011;30170;52.190;8.702;2023-03-01T04:20:49;21.50;;;12.15;;
44462;SDS011;30170;52.190;8.702;2023-03-01T04:23:18;21.48;;;11.38;;
44462;SDS011;30170;52.190;8.702;2023-03-01T04:25:57;21.98;;;11.98;;
44462;SDS011;30170;52.190;8.702;2023-03-01T04:28:25;21.60;;;11.60;;
44462;SDS011;30170;52.190;8.702;2023-03-01T04:30:53;23.67;;;11.95;;
44462;SDS011;30170;52.190;8.702;2023-03-01T04:33:21;24.63;;;11.82;;
44462;SDS011;30170;52.190;8.702;2023-03-01T04:35:49;28.17;;;13.68;;
44462;SDS011;30170;52.190;8.702;2023-03-01T04:38:17;29.45;;;13.68;;
44462;SDS011;30170;52.190;8.702;2023-03-01T04:40:45;19.92;;;12.07;;
44462;SDS011;30170;52.190;8.702;2023-03-01T04:43:12;23.38;;;12.85;;
44462;SDS011;30170;52.190;8.702;2023-03-01T04:45:43;18.02;;;10.38;;
44462;SDS011;30170;52.190;8.702;2023-03-01T04:48:11;25.05;;;12.48;;
44462;SDS011;30170;52.190;8.702;2023-03-01T04:50:38;18.02;;;10.55;;
44462;SDS011;30170;52.190;8.702;2023-03-01T04:53:05;26.05;;;11.23;;
44462;SDS011;30170;52.190;8.702;2023-03-01T04:55:33;24.05;;;12.43;;
44462;SDS011;30170;52.190;8.702;2023-03-01T04:58:00;22.77;;;12.00;;
44462;SDS011;30170;52.190;8.702;2023-03-01T05:00:27;26.00;;;13.43;;
44462;SDS011;30170;52.190;8.702;2023-03-01T05:02:56;27.88;;;14.18;;
44462;SDS011;30170;52.190;8.702;2023-03-01T05:05:28;29.65;;;13.82;;
44462;SDS011;30170;52.190;8.702;2023-03-01T05:07:58;24.52;;;12.23;;
44462;SDS011;30170;52.190;8.702;2023-03-01T05:10:26;25.27;;;11.98;;
44462;SDS011;30170;52.190;8.702;2023-03-01T05:12:55;20.08;;;11.30;;
44462;SDS011;30170;52.190;8.702;2023-03-01T05:15:24;31.85;;;14.48;;
44462;SDS011;30170;52.190;8.702;2023-03-01T05:17:52;25.48;;;12.73;;
44462;SDS011;30170;52.190;8.702;2023-03-01T05:20:20;17.83;;;11.63;;
44462;SDS011;30170;52.190;8.702;2023-03-01T05:22:51;27.02;;;12.10;;
44462;SDS011;30170;52.190;8.702;2023-03-01T05:25:19;23.02;;;13.40;;
44462;SDS011;30170;52.190;8.702;2023-03-01T05:27:47;26.40;;;13.15;;
44462;SDS011;30170;52.190;8.702;2023-03-01T05:30:15;19.83;;;10.65;;
44462;SDS011;30170;52.190;8.702;2023-03-01T05:32:47;24.17;;;11.98;;
44462;SDS011;30170;52.190;8.702;2023-03-01T05:35:16;18.10;;;11.05;;
44462;SDS011;30170;52.190;8.702;2023-03-01T05:37:45;19.90;;;10.77;;
44462;SDS011;30170;52.190;8.702;2023-03-01T05:40:14;18.17;;;9.93;;
44462;SDS011;30170;52.190;8.702;2023-03-01T05:42:46;17.55;;;9.20;;
44462;SDS011;30170;52.190;8.702;2023-03-01T05:45:14;20.60;;;10.68;;
44462;SDS011;30170;52.190;8.702;2023-03-01T05:47:42;19.08;;;10.27;;
44462;SDS011;30170;52.190;8.702;2023-03-01T05:50:17;19.52;;;10.30;;
44462;SDS011;30170;52.190;8.702;2023-03-01T05:52:48;19.63;;;10.63;;
44462;SDS011;30170;52.190;8.702;2023-03-01T05:55:16;19.25;;;10.55;;
44462;SDS011;30170;52.190;8.702;2023-03-01T05:57:44;18.50;;;10.68;;
44462;SDS011;30170;52.190;8.702;2023-03-01T06:00:12;19.67;;;9.90;;
44462;SDS011;30170;52.190;8.702;2023-03-01T06:02:39;22.90;;;11.80;;
44462;SDS011;30170;52.190;8.702;2023-03-01T06:05:07;23.42;;;11.35;;
44462;SDS011;30170;52.190;8.702;2023-03-01T06:07:35;20.75;;;10.15;;
44462;SDS011;30170;52.190;8.702;2023-03-01T06:10:03;18.83;;;10.80;;
44462;SDS011;30170;52.190;8.702;2023-03-01T06:12:32;15.25;;;9.85;;
44462;SDS011;30170;52.190;8.702;2023-03-01T06:15:03;21.75;;;10.20;;
44462;SDS011;30170;52.190;8.702;2023-03-01T06:17:32;23.05;;;11.35;;
44462;SDS011;30170;52.190;8.702;2023-03-01T06:20:07;24.07;;;10.60;;
44462;SDS011;30170;52.190;8.702;2023-03-01T06:22:35;28.17;;;12.02;;
44462;SDS011;30170;52.190;8.702;2023-03-01T06:25:02;22.73;;;11.50;;
44462;SDS011;30170;52.190;8.702;2023-03-01T06:27:29;21.52;;;12.00;;
44462;SDS011;30170;52.190;8.702;2023-03-01T06:29:57;22.42;;;11.65;;
44462;SDS011;30170;52.190;8.702;2023-03-01T06:32:24;28.25;;;12.85;;
44462;SDS011;30170;52.190;8.702;2023-03-01T06:34:51;30.13;;;12.93;;
44462;SDS011;30170;52.190;8.702;2023-03-01T06:37:18;19.50;;;11.57;;
44462;SDS011;30170;52.190;8.702;2023-03-01T06:39:46;23.25;;;11.55;;
44462;SDS011;30170;52.190;8.702;2023-03-01T06:42:13;27.95;;;11.80;;
44462;SDS011;30170;52.190;8.702;2023-03-01T06:44:40;21.60;;;11.50;;
44462;SDS011;30170;52.190;8.702;2023-03-01T06:47:07;23.65;;;12.65;;
44462;SDS011;30170;52.190;8.702;2023-03-01T06:49:34;22.83;;;12.75;;
44462;SDS011;30170;52.190;8.702;2023-03-01T06:52:02;27.77;;;12.38;;
44462;SDS011;30170;52.190;8.702;2023-03-01T06:54:29;30.52;;;13.57;;
44462;SDS011;30170;52.190;8.702;2023-03-01T06:56:56;22.67;;;11.60;;
44462;SDS011;30170;52.190;8.702;2023-03-01T06:59:23;21.20;;;11.25;;
44462;SDS011;30170;52.190;8.702;2023-03-01T07:01:51;21.00;;;12.27;;
44462;SDS011;30170;52.190;8.702;2023-03-01T07:04:18;25.92;;;12.25;;
44462;SDS011;30170;52.190;8.702;2023-03-01T07:06:45;20.42;;;11.70;;
44462;SDS011;30170;52.190;8.702;2023-03-01T07:09:18;20.08;;;11.63;;
44462;SDS011;30170;52.190;8.702;2023-03-01T07:11:45;22.88;;;13.13;;
44462;SDS011;30170;52.190;8.702;2023-03-01T07:14:13;23.45;;;13.20;;
44462;SDS011;30170;52.190;8.702;2023-03-01T07:16:42;22.60;;;12.85;;
44462;SDS011;30170;52.190;8.702;2023-03-01T07:19:09;21.90;;;12.13;;
44462;SDS011;30170;52.190;8.702;2023-03-01T07:21:36;28.55;;;13.48;;
44462;SDS011;30170;52.190;8.702;2023-03-01T07:24:07;24.17;;;14.27;;
44462;SDS011;30170;52.190;8.702;2023-03-01T07:26:34;26.25;;;14.05;;
44462;SDS011;30170;52.190;8.702;2023-03-01T07:29:02;28.23;;;13.52;;
44462;SDS011;30170;52.190;8.702;2023-03-01T07:31:29;24.80;;;13.60;;
44462;SDS011;30170;52.190;8.702;2023-03-01T07:33:57;28.30;;;14.90;;
44462;SDS011;30170;52.190;8.702;2023-03-01T07:36:24;30.70;;;15.23;;
44462;SDS011;30170;52.190;8.702;2023-03-01T07:38:51;35.88;;;16.80;;
44462;SDS011;30170;52.190;8.702;2023-03-01T07:41:18;26.35;;;15.50;;
44462;SDS011;30170;52.190;8.702;2023-03-01T07:43:46;28.15;;;14.90;;
44462;SDS011;30170;52.190;8.702;2023-03-01T07:46:13;27.30;;;15.00;;
44462;SDS011;30170;52.190;8.702;2023-03-01T07:48:40;29.70;;;14.57;;
44462;SDS011;30170;52.190;8.702;2023-03-01T07:51:07;27.35;;;14.10;;
44462;SDS011;30170;52.190;8.702;2023-03-01T07:53:34;26.83;;;14.00;;
44462;SDS011;30170;52.190;8.702;2023-03-01T07:58:36;27.38;;;15.95;;
44462;SDS011;30170;52.190;8.702;2023-03-01T08:01:04;40.58;;;22.65;;
44462;SDS011;30170;52.190;8.702;2023-03-01T08:03:32;35.35;;;19.65;;
44462;SDS011;30170;52.190;8.702;2023-03-01T08:06:00;29.75;;;16.70;;
44462;SDS011;30170;52.190;8.702;2023-03-01T08:08:27;32.28;;;15.30;;
44462;SDS011;30170;52.190;8.702;2023-03-01T08:10:58;29.25;;;13.75;;
44462;SDS011;30170;52.190;8.702;2023-03-01T08:13:26;25.80;;;13.52;;
44462;SDS011;30170;52.190;8.702;2023-03-01T08:15:53;27.05;;;14.45;;
44462;SDS011;30170;52.190;8.702;2023-03-01T08:18:39;27.27;;;13.73;;
44462;SDS011;30170;52.190;8.702;2023-03-01T08:21:07;23.13;;;14.20;;
44462;SDS011;30170;52.190;8.702;2023-03-01T08:23:35;24.38;;;12.43;;
44462;SDS011;30170;52.190;8.702;2023-03-01T08:28:36;24.33;;;13.98;;
44462;SDS011;30170;52.190;8.702;2023-03-01T08:31:12;25.80;;;13.82;;
44462;SDS011;30170;52.190;8.702;2023-03-01T08:33:40;36.60;;;15.63;;
44462;SDS011;30170;52.190;8.702;2023-03-01T08:36:07;35.47;;;18.77;;
44462;SDS011;30170;52.190;8.702;2023-03-01T08:38:34;37.33;;;18.80;;
44462;SDS011;30170;52.190;8.702;2023-03-01T08:41:02;36.45;;;19.05;;
44462;SDS011;30170;52.190;8.702;2023-03-01T08:43:30;31.58;;;15.55;;
44462;SDS011;30170;52.190;8.702;2023-03-01T08:45:57;25.05;;;15.13;;
44462;SDS011;30170;52.190;8.702;2023-03-01T08:48:24;22.52;;;14.25;;
44462;SDS011;30170;52.190;8.702;2023-03-01T08:50:52;32.45;;;17.30;;
44462;SDS011;30170;52.190;8.702;2023-03-01T08:53:19;29.08;;;14.50;;
44462;SDS011;30170;52.190;8.702;2023-03-01T08:55:46;23.45;;;13.88;;
44462;SDS011;30170;52.190;8.702;2023-03-01T08:58:15;21.98;;;12.88;;
44462;SDS011;30170;52.190;8.702;2023-03-01T09:00:43;23.25;;;13.75;;
44462;SDS011;30170;52.190;8.702;2023-03-01T09:03:10;27.13;;;14.52;;
44462;SDS011;30170;52.190;8.702;2023-03-01T09:05:37;23.13;;;12.52;;
44462;SDS011;30170;52.190;8.702;2023-03-01T09:08:05;23.45;;;13.40;;
44462;SDS011;30170;52.190;8.702;2023-03-01T09:10:36;21.13;;;11.32;;
44462;SDS011;30170;52.190;8.702;2023-03-01T09:13:04;26.98;;;13.07;;
44462;SDS011;30170;52.190;8.702;2023-03-01T09:15:31;23.63;;;12.73;;
44462;SDS011;30170;52.190;8.702;2023-03-01T09:17:59;24.42;;;13.57;;
44462;SDS011;30170;52.190;8.702;2023-03-01T09:20:27;22.33;;;12.38;;
44462;SDS011;30170;52.190;8.702;2023-03-01T09:22:54;24.08;;;12.80;;
44462;SDS011;30170;52.190;8.702;2023-03-01T09:25:21;21.23;;;12.60;;
44462;SDS011;30170;52.190;8.702;2023-03-01T09:27:52;21.30;;;11.75;;
44462;SDS011;30170;52.190;8.702;2023-03-01T09:30:19;19.42;;;11.68;;
44462;SDS011;30170;52.190;8.702;2023-03-01T09:32:47;18.60;;;10.75;;
44462;SDS011;30170;52.190;8.702;2023-03-01T09:35:14;18.10;;;10.45;;
44462;SDS011;30170;52.190;8.702;2023-03-01T09:37:41;18.25;;;10.70;;
44462;SDS011;30170;52.190;8.702;2023-03-01T09:40:15;18.52;;;9.80;;
44462;SDS011;30170;52.190;8.702;2023-03-01T09:43:04;20.02;;;9.80;;
44462;SDS011;30170;52.190;8.702;2023-03-01T09:45:33;17.63;;;11.00;;
44462;SDS011;30170;52.190;8.702;2023-03-01T09:48:01;15.15;;;9.65;;
44462;SDS011;30170;52.190;8.702;2023-03-01T09:50:32;18.92;;;9.05;;
44462;SDS011;30170;52.190;8.702;2023-03-01T09:55:39;14.82;;;8.20;;
44462;SDS011;30170;52.190;8.702;2023-03-01T09:58:25;13.70;;;7.30;;
44462;SDS011;30170;52.190;8.702;2023-03-01T10:00:56;12.80;;;7.30;;
44462;SDS011;30170;52.190;8.702;2023-03-01T10:03:26;15.70;;;7.38;;
44462;SDS011;30170;52.190;8.702;2023-03-01T10:10:57;14.43;;;7.45;;
44462;SDS011;30170;52.190;8.702;2023-03-01T10:13:37;13.55;;;7.05;;
44462;SDS011;30170;52.190;8.702;2023-03-01T10:16:16;12.70;;;6.95;;
44462;SDS011;30170;52.190;8.702;2023-03-01T10:18:47;12.82;;;7.05;;
44462;SDS011;30170;52.190;8.702;2023-03-01T10:21:19;13.45;;;7.75;;
44462;SDS011;30170;52.190;8.702;2023-03-01T10:23:49;12.13;;;6.57;;
44462;SDS011;30170;52.190;8.702;2023-03-01T10:32:00;10.95;;;6.35;;
44462;SDS011;30170;52.190;8.702;2023-03-01T10:36:56;8.75;;;6.63;;
44462;SDS011;30170;52.190;8.702;2023-03-01T10:39:25;9.95;;;6.22;;
44462;SDS011;30170;52.190;8.702;2023-03-01T10:44:40;8.75;;;6.18;;
44462;SDS011;30170;52.190;8.702;2023-03-01T10:52:27;10.55;;;5.57;;
44462;SDS011;30170;52.190;8.702;2023-03-01T10:54:59;14.00;;;5.45;;
44462;SDS011;30170;52.190;8.702;2023-03-01T10:57:28;8.07;;;5.37;;
44462;SDS011;30170;52.190;8.702;2023-03-01T11:00:29;8.93;;;6.00;;
44462;SDS011;30170;52.190;8.702;2023-03-01T11:02:50;7.68;;;4.90;;
44462;SDS011;30170;52.190;8.702;2023-03-01T11:05:19;10.77;;;5.70;;
44462;SDS011;30170;52.190;8.702;2023-03-01T11:07:51;8.07;;;5.95;;
44462;SDS011;30170;52.190;8.702;2023-03-01T11:10:21;7.13;;;5.45;;
44462;SDS011;30170;52.190;8.702;2023-03-01T11:12:48;9.23;;;5.95;;
44462;SDS011;30170;52.190;8.702;2023-03-01T11:15:24;7.18;;;5.40;;
44462;SDS011;30170;52.190;8.702;2023-03-01T11:17:52;9.60;;;5.40;;
44462;SDS011;30170;52.190;8.702;2023-03-01T11:20:38;10.48;;;5.90;;
44462;SDS011;30170;52.190;8.702;2023-03-01T11:23:09;9.52;;;5.78;;
44462;SDS011;30170;52.190;8.702;2023-03-01T11:25:37;7.60;;;5.75;;
44462;SDS011;30170;52.190;8.702;2023-03-01T11:28:06;7.82;;;4.88;;
44462;SDS011;30170;52.190;8.702;2023-03-01T11:30:37;9.48;;;5.93;;
44462;SDS011;30170;52.190;8.702;2023-03-01T11:33:10;9.35;;;5.40;;
44462;SDS011;30170;52.190;8.702;2023-03-01T11:35:49;7.95;;;5.55;;
44462;SDS011;30170;52.190;8.702;2023-03-01T11:38:25;10.60;;;5.68;;
44462;SDS011;30170;52.190;8.702;2023-03-01T11:40:58;11.48;;;5.78;;
44462;SDS011;30170;52.190;8.702;2023-03-01T11:48:28;10.02;;;6.03;;
44462;SDS011;30170;52.190;8.702;2023-03-01T11:56:18;10.00;;;6.43;;
44462;SDS011;30170;52.190;8.702;2023-03-01T11:58:53;8.68;;;5.68;;
44462;SDS011;30170;52.190;8.702;2023-03-01T12:01:38;10.15;;;5.88;;
44462;SDS011;30170;52.190;8.702;2023-03-01T12:06:59;9.52;;;5.07;;
44462;SDS011;30170;52.190;8.702;2023-03-01T12:20:20;9.70;;;6.45;;
44462;SDS011;30170;52.190;8.702;2023-03-01T12:33:00;8.77;;;5.93;;
44462;SDS011;30170;52.190;8.702;2023-03-01T12:38:10;9.57;;;5.32;;
44462;SDS011;30170;52.190;8.702;2023-03-01T12:51:26;12.98;;;6.10;;
44462;SDS011;30170;52.190;8.702;2023-03-01T12:54:07;10.55;;;5.65;;
44462;SDS011;30170;52.190;8.702;2023-03-01T12:56:42;6.90;;;5.05;;
44462;SDS011;30170;52.190;8.702;2023-03-01T13:08:15;9.80;;;5.53;;
44462;SDS011;30170;52.190;8.702;2023-03-01T13:10:50;8.43;;;5.18;;
44462;SDS011;30170;52.190;8.702;2023-03-01T13:15:47;12.68;;;5.68;;
44462;SDS011;30170;52.190;8.702;2023-03-01T13:20:50;7.47;;;5.32;;
44462;SDS011;30170;52.190;8.702;2023-03-01T13:34:02;8.90;;;5.85;;
44462;SDS011;30170;52.190;8.702;2023-03-01T13:39:03;10.52;;;5.47;;
44462;SDS011;30170;52.190;8.702;2023-03-01T13:46:50;6.57;;;5.03;;
44462;SDS011;30170;52.190;8.702;2023-03-01T13:49:21;7.45;;;4.88;;
44462;SDS011;30170;52.190;8.702;2023-03-01T13:51:51;9.23;;;5.38;;
44462;SDS011;30170;52.190;8.702;2023-03-01T13:59:51;7.13;;;4.78;;
44462;SDS011;30170;52.190;8.702;2023-03-01T14:02:21;8.00;;;5.05;;
44462;SDS011;30170;52.190;8.702;2023-03-01T14:04:56;7.35;;;5.18;;
44462;SDS011;30170;52.190;8.702;2023-03-01T14:07:24;9.05;;;5.57;;
44462;SDS011;30170;52.190;8.702;2023-03-01T14:10:02;7.88;;;5.68;;
44462;SDS011;30170;52.190;8.702;2023-03-01T14:20:27;9.43;;;6.65;;
44462;SDS011;30170;52.190;8.702;2023-03-01T14:23:07;6.15;;;4.00;;
44462;SDS011;30170;52.190;8.702;2023-03-01T14:25:38;10.57;;;4.55;;
44462;SDS011;30170;52.190;8.702;2023-03-01T14:28:17;8.23;;;5.63;;
44462;SDS011;30170;52.190;8.702;2023-03-01T14:30:46;9.93;;;4.28;;
44462;SDS011;30170;52.190;8.702;2023-03-01T14:33:21;9.00;;;4.00;;
44462;SDS011;30170;52.190;8.702;2023-03-01T14:38:46;5.53;;;3.90;;
44462;SDS011;30170;52.190;8.702;2023-03-01T14:41:18;8.25;;;3.88;;
44462;SDS011;30170;52.190;8.702;2023-03-01T14:43:47;5.35;;;3.88;;
44462;SDS011;30170;52.190;8.702;2023-03-01T14:46:20;6.60;;;4.13;;
44462;SDS011;30170;52.190;8.702;2023-03-01T14:48:49;5.43;;;3.60;;
44462;SDS011;30170;52.190;8.702;2023-03-01T14:51:16;6.13;;;4.05;;
44462;SDS011;30170;52.190;8.702;2023-03-01T14:53:44;4.68;;;3.47;;
44462;SDS011;30170;52.190;8.702;2023-03-01T14:56:16;9.38;;;4.15;;
44462;SDS011;30170;52.190;8.702;2023-03-01T14:58:46;4.85;;;3.35;;
44462;SDS011;30170;52.190;8.702;2023-03-01T15:01:18;6.22;;;3.38;;
44462;SDS011;30170;52.190;8.702;2023-03-01T15:03:48;5.43;;;3.33;;
44462;SDS011;30170;52.190;8.702;2023-03-01T15:06:20;6.07;;;3.33;;
44462;SDS011;30170;52.190;8.702;2023-03-01T15:08:49;7.03;;;3.42;;
44462;SDS011;30170;52.190;8.702;2023-03-01T15:11:32;6.28;;;4.07;;
44462;SDS011;30170;52.190;8.702;2023-03-01T15:13:59;6.82;;;3.72;;
44462;SDS011;30170;52.190;8.702;2023-03-01T15:16:30;7.85;;;3.60;;
44462;SDS011;30170;52.190;8.702;2023-03-01T15:19:04;4.80;;;3.20;;
44462;SDS011;30170;52.190;8.702;2023-03-01T15:21:36;6.18;;;3.90;;
44462;SDS011;30170;52.190;8.702;2023-03-01T15:26:53;6.03;;;3.95;;
44462;SDS011;30170;52.190;8.702;2023-03-01T15:29:22;4.70;;;3.30;;
44462;SDS011;30170;52.190;8.702;2023-03-01T15:31:57;9.43;;;3.75;;
44462;SDS011;30170;52.190;8.702;2023-03-01T15:34:32;5.47;;;3.50;;
44462;SDS011;30170;52.190;8.702;2023-03-01T15:37:01;5.78;;;3.30;;
44462;SDS011;30170;52.190;8.702;2023-03-01T15:39:40;6.38;;;3.75;;
44462;SDS011;30170;52.190;8.702;2023-03-01T15:47:47;5.38;;;3.90;;
44462;SDS011;30170;52.190;8.702;2023-03-01T15:50:18;5.55;;;3.50;;
44462;SDS011;30170;52.190;8.702;2023-03-01T15:52:46;7.45;;;3.70;;
44462;SDS011;30170;52.190;8.702;2023-03-01T15:55:15;6.05;;;3.90;;
44462;SDS011;30170;52.190;8.702;2023-03-01T15:57:43;7.75;;;3.85;;
44462;SDS011;30170;52.190;8.702;2023-03-01T16:00:11;8.88;;;4.28;;
44462;SDS011;30170;52.190;8.702;2023-03-01T16:02:40;8.15;;;3.92;;
44462;SDS011;30170;52.190;8.702;2023-03-01T16:05:14;6.88;;;3.92;;
44462;SDS011;30170;52.190;8.702;2023-03-01T16:07:43;7.07;;;3.92;;
44462;SDS011;30170;52.190;8.702;2023-03-01T16:10:10;4.63;;;3.45;;
44462;SDS011;30170;52.190;8.702;2023-03-01T16:12:39;8.18;;;3.80;;
44462;SDS011;30170;52.190;8.702;2023-03-01T16:15:26;6.50;;;3.28;;
44462;SDS011;30170;52.190;8.702;2023-03-01T16:17:57;7.65;;;3.80;;
44462;SDS011;30170;52.190;8.702;2023-03-01T16:20:25;5.88;;;3.95;;
44462;SDS011;30170;52.190;8.702;2023-03-01T16:22:57;6.25;;;3.55;;
44462;SDS011;30170;52.190;8.702;2023-03-01T16:25:24;6.70;;;3.65;;
44462;SDS011;30170;52.190;8.702;2023-03-01T16:27:52;6.47;;;3.90;;
44462;SDS011;30170;52.190;8.702;2023-03-01T16:30:20;6.55;;;3.90;;
44462;SDS011;30170;52.190;8.702;2023-03-01T16:32:48;8.50;;;4.35;;
44462;SDS011;30170;52.190;8.702;2023-03-01T16:35:17;8.93;;;5.68;;
44462;SDS011;30170;52.190;8.702;2023-03-01T16:37:44;6.93;;;4.82;;
44462;SDS011;30170;52.190;8.702;2023-03-01T16:40:19;9.48;;;4.82;;
44462;SDS011;30170;52.190;8.702;2023-03-01T16:42:47;11.23;;;6.45;;
44462;SDS011;30170;52.190;8.702;2023-03-01T16:45:15;6.72;;;4.47;;
44462;SDS011;30170;52.190;8.702;2023-03-01T16:47:51;12.25;;;5.43;;
44462;SDS011;30170;52.190;8.702;2023-03-01T16:50:21;7.70;;;4.38;;
44462;SDS011;30170;52.190;8.702;2023-03-01T16:52:48;6.75;;;4.22;;
44462;SDS011;30170;52.190;8.702;2023-03-01T16:55:15;7.13;;;4.15;;
44462;SDS011;30170;52.190;8.702;2023-03-01T16:57:43;8.70;;;4.30;;
44462;SDS011;30170;52.190;8.702;2023-03-01T17:00:10;7.30;;;5.43;;
44462;SDS011;30170;52.190;8.702;2023-03-01T17:02:40;9.80;;;5.28;;
44462;SDS011;30170;52.190;8.702;2023-03-01T17:05:08;12.60;;;7.70;;
44462;SDS011;30170;52.190;8.702;2023-03-01T17:07:37;10.30;;;7.07;;
44462;SDS011;30170;52.190;8.702;2023-03-01T17:10:05;9.55;;;5.13;;
44462;SDS011;30170;52.190;8.702;2023-03-01T17:12:34;8.73;;;4.85;;